Helen Laraway — WDH3753 — position and weather

sailwx.info

Track history (hours):
 
Tides and Currents Weather Stations Pressure Air Temp Water Temp Dewpoint Dewpoint Depression Visibility Wind Speed Wind Dir Waves Ship Positions

Helen Laraway

Owner: Coeymans Marine Towing, LLC, Syosset, NY. More information available from US FCC via Universal Licensing System and Coast Guard Vessel Documentation Center.

Last reported at 2017-Nov-20 00:30 UTC. Time now 2017-Nov-22 11:21 UTC.
Position N 40°42' W 074°02'.

Length 23 m; draft 3 m.

Type: Tug. MMSI: 367610540.

Date/timePositionNaut miles runAvg speedWind from/ knotsBaromVisibWave heightAir tempDewpointWater temp
2017-Nov-20 00:30N 40°42' W 074°02'3 5.3
2017-Nov-20 00:01N 40°45' W 074°01'3 5.2
2017-Nov-19 23:30N 40°47' W 073°60'3 5.4
2017-Nov-19 23:00N 40°49' W 073°58'3 5.6
2017-Nov-19 22:30N 40°52' W 073°57'3 5.9
2017-Nov-19 22:00N 40°55' W 073°55'  
2017-Nov-16 11:44N 40°57' W 073°54'1 5.5
2017-Nov-16 11:30N 40°56' W 073°55'3 5.4
2017-Nov-16 11:00N 40°53' W 073°56'3 5.4
2017-Nov-16 10:30N 40°51' W 073°57'2 4.8
2017-Nov-16 10:00N 40°49' W 073°59'2 4.7
2017-Nov-16 09:30N 40°47' W 073°60'2 3.6
2017-Nov-16 09:00N 40°45' W 074°01'2 3.0
2017-Nov-16 08:30N 40°44' W 074°01'1 2.9
2017-Nov-16 08:00N 40°42' W 074°02'1 2.8
2017-Nov-16 07:30N 40°41' W 074°03'1 2.2
2017-Nov-16 07:00N 40°40' W 074°03'0 0.2
2017-Nov-16 06:30N 40°40' W 074°03'0 0.0
2017-Nov-16 06:00N 40°40' W 074°03'0 0.1
2017-Nov-16 05:30N 40°40' W 074°03'0 0.0
2017-Nov-16 05:00N 40°40' W 074°03'0 0.0
2017-Nov-16 04:30N 40°40' W 074°03'0 0.0
2017-Nov-16 04:00N 40°40' W 074°03'0 0.0
2017-Nov-16 03:30N 40°40' W 074°03'0 0.0
2017-Nov-16 03:00N 40°40' W 074°03'0 0.2
2017-Nov-16 02:30N 40°40' W 074°03'0 0.1
2017-Nov-16 02:00N 40°40' W 074°03'1 2.5
2017-Nov-16 01:30N 40°41' W 074°02'3 6.4
2017-Nov-16 01:00N 40°43' W 073°59'2 3.7
2017-Nov-16 00:30N 40°44' W 073°57'1 1.2
2017-Nov-16 00:00N 40°44' W 073°57'0 0.5
2017-Nov-15 23:30N 40°44' W 073°57'4 8.8
2017-Nov-15 23:00N 40°41' W 074°01'1 2.9
2017-Nov-15 22:30N 40°40' W 074°02'1 2.4
2017-Nov-15 22:00N 40°40' W 074°03'1 2.7
2017-Nov-15 21:30N 40°41' W 074°02'3 5.1
2017-Nov-15 21:00N 40°42' W 073°59'2 4.5
2017-Nov-15 20:30N 40°44' W 073°57'1 1.4
2017-Nov-15 20:00N 40°44' W 073°57'0 0.1
2017-Nov-15 19:29N 40°44' W 073°57'0 0.9
2017-Nov-15 19:00N 40°44' W 073°57'2 5.0
2017-Nov-15 18:30N 40°42' W 073°59'3 6.2
2017-Nov-15 18:00N 40°40' W 074°02'1 1.5
2017-Nov-15 17:30N 40°40' W 074°01'0 0.0
2017-Nov-15 17:00N 40°40' W 074°01'0 0.0
2017-Nov-15 16:30N 40°40' W 074°01'0 0.3
2017-Nov-15 16:00N 40°40' W 074°01'3 5.6
2017-Nov-15 15:30N 40°39' W 074°04'3 6.9
2017-Nov-15 15:00N 40°39' W 074°09'4 8.2
2017-Nov-15 14:30N 40°43' W 074°07'1 1.7
2017-Nov-15 14:00N 40°44' W 074°07'0 0.0
2017-Nov-15 13:30N 40°44' W 074°07'0 0.0
2017-Nov-15 13:00N 40°44' W 074°07'1 1.3
2017-Nov-15 12:30N 40°43' W 074°07'3 5.0
2017-Nov-15 12:00N 40°41' W 074°08'2 4.3
2017-Nov-15 11:30N 40°39' W 074°08'2 5.0
2017-Nov-15 11:00N 40°39' W 074°05'3 5.2
2017-Nov-15 10:30N 40°40' W 074°02'0 0.1
2017-Nov-15 10:00N 40°40' W 074°02'0 0.2
2017-Nov-15 09:30N 40°40' W 074°02'2 3.0
2017-Nov-15 09:00N 40°41' W 074°01'2 3.8
2017-Nov-15 08:30N 40°42' W 073°59'2 3.6
2017-Nov-15 08:00N 40°44' W 073°58'2 4.3
2017-Nov-15 07:29N 40°46' W 073°57'2 4.5
2017-Nov-15 07:00N 40°48' W 073°55'3 5.5
2017-Nov-15 06:30N 40°48' W 073°51'3 6.1
2017-Nov-15 06:00N 40°48' W 073°47'6 0.3
2017-Nov-14 08:27N 40°53' W 073°43'4 7.0
2017-Nov-14 07:52N 40°50' W 073°46'3 6.4
2017-Nov-14 07:27N 40°48' W 073°49'4 8.7
2017-Nov-14 07:00N 40°48' W 073°54'5 9.5
2017-Nov-14 06:30N 40°44' W 073°58'4 7.8
2017-Nov-14 06:01N 40°41' W 074°01'2 4.3
2017-Nov-14 05:30N 40°40' W 074°03'3 5.1
2017-Nov-14 05:00N 40°39' W 074°06'0 0.5
2017-Nov-14 04:30N 40°39' W 074°07'0 0.0
2017-Nov-14 04:00N 40°39' W 074°07'0 0.0
2017-Nov-14 03:30N 40°39' W 074°07'1 2.8
2017-Nov-14 03:00N 40°39' W 074°05'3 6.1
2017-Nov-14 02:30N 40°40' W 074°01'1 1.1
2017-Nov-14 02:00N 40°40' W 074°02'0 0.7
2017-Nov-14 01:30N 40°40' W 074°02'1 1.7
2017-Nov-14 01:00N 40°40' W 074°01'0 0.8
2017-Nov-14 00:30N 40°40' W 074°01'1 1.4
2017-Nov-14 00:00N 40°40' W 074°00'0 0.8
2017-Nov-13 23:30N 40°40' W 074°01'2 3.9
2017-Nov-13 23:00N 40°40' W 074°03'0 0.0
2017-Nov-13 22:30N 40°40' W 074°03'0 0.2
2017-Nov-13 22:00N 40°40' W 074°03'8 0.4
2017-Nov-13 02:00N 40°47' W 073°59'5 9.3
2017-Nov-13 01:30N 40°51' W 073°57'6 0.1
2017-Nov-11 05:37N 40°57' W 073°54'1 6.8
2017-Nov-11 05:29N 40°56' W 073°54'3 6.5
2017-Nov-11 05:00N 40°53' W 073°56'3 6.2
2017-Nov-11 04:31N 40°50' W 073°57'3 5.7
2017-Nov-11 04:00N 40°48' W 073°59'3 5.0
2017-Nov-11 03:30N 40°46' W 074°01'2 4.4
2017-Nov-11 03:00N 40°44' W 074°01'2 3.8
2017-Nov-11 02:30N 40°42' W 074°02'2 3.7
2017-Nov-11 02:01N 40°40' W 074°03'1 1.2
2017-Nov-11 01:30N 40°40' W 074°03'0 0.5
2017-Nov-11 01:01N 40°40' W 074°02'1 1.8
2017-Nov-11 00:30N 40°41' W 074°02'4 8.2
2017-Nov-11 00:00N 40°44' W 073°58'1 2.4
2017-Nov-10 23:30N 40°44' W 073°57'0 0.1
2017-Nov-10 23:01N 40°44' W 073°57'1 2.8
2017-Nov-10 22:30N 40°43' W 073°58'5 9.5
2017-Nov-10 22:00N 40°47' W 073°55'4 7.8
2017-Nov-10 21:30N 40°48' W 073°50'2 3.9
2017-Nov-10 20:54N 40°50' W 073°48'0 0.4
2017-Nov-10 20:27N 40°50' W 073°48'1 2.1
2017-Nov-10 20:00N 40°50' W 073°48'1 2.9
2017-Nov-10 19:30N 40°48' W 073°47'5 7.6
2017-Nov-10 18:54N 40°48' W 073°53'4 9.1
2017-Nov-10 18:30N 40°46' W 073°57'4 8.8
2017-Nov-10 18:00N 40°42' W 073°60'2 4.1
2017-Nov-10 17:31N 40°40' W 074°01'0 0.0
2017-Nov-10 17:01N 40°40' W 074°01'0 0.0
2017-Nov-10 16:31N 40°40' W 074°01'0 0.0
2017-Nov-10 16:01N 40°40' W 074°01'0 0.0
2017-Nov-10 15:31N 40°40' W 074°01'0 0.0
2017-Nov-10 15:00N 40°40' W 074°01'0 0.0
2017-Nov-10 14:31N 40°40' W 074°01'0 0.0
2017-Nov-10 14:01N 40°40' W 074°01'0 0.0
2017-Nov-10 13:31N 40°40' W 074°01'0 0.0
2017-Nov-10 13:01N 40°40' W 074°01'0 0.0
2017-Nov-10 12:31N 40°40' W 074°01'0 0.0
2017-Nov-10 12:01N 40°40' W 074°01'0 0.0
2017-Nov-10 11:31N 40°40' W 074°01'0 0.0
2017-Nov-10 11:01N 40°40' W 074°01'0 0.0
2017-Nov-10 10:31N 40°40' W 074°01'0 0.0
2017-Nov-10 10:01N 40°40' W 074°01'0 0.0
2017-Nov-10 09:30N 40°40' W 074°01'0 0.0
2017-Nov-10 09:01N 40°40' W 074°01'0 0.0
2017-Nov-10 08:31N 40°40' W 074°01'0 0.0
2017-Nov-10 08:01N 40°40' W 074°01'0 0.0
2017-Nov-10 07:30N 40°40' W 074°01'0 0.0
2017-Nov-10 07:01N 40°40' W 074°01'0 0.0
2017-Nov-10 06:31N 40°40' W 074°01'0 0.0
2017-Nov-10 06:01N 40°40' W 074°01'2 3.5
2017-Nov-10 05:31N 40°42' W 074°00'2 4.9
2017-Nov-10 05:01N 40°44' W 073°58'1 2.5
2017-Nov-10 04:30N 40°44' W 073°57'0 0.0
2017-Nov-10 04:00N 40°44' W 073°57'0 0.0
2017-Nov-10 03:30N 40°44' W 073°57'0 0.0
2017-Nov-10 03:00N 40°44' W 073°57'0 0.0
2017-Nov-10 02:30N 40°44' W 073°57'0 0.9
2017-Nov-10 02:00N 40°44' W 073°57'4 7.9
2017-Nov-10 01:31N 40°41' W 074°01'2 3.7
2017-Nov-10 01:00N 40°40' W 074°02'0 0.1
2017-Nov-10 00:31N 40°40' W 074°02'  
Track history (hours):
 
Tides and Currents Weather Stations Pressure Air Temp Water Temp Dewpoint Dewpoint Depression Visibility Wind Speed Wind Dir Waves Ship Positions

Helen Laraway

Owner: Coeymans Marine Towing, LLC, Syosset, NY. More information available from US FCC via Universal Licensing System and Coast Guard Vessel Documentation Center.

Last reported at 2017-Nov-20 00:30 UTC. Time now 2017-Nov-22 11:21 UTC.
Position N 40°42' W 074°02'.

Length 23 m; draft 3 m.

Type: Tug. MMSI: 367610540.

Date/timePositionNaut miles runAvg speedWind from/ knotsBaromVisibWave heightAir tempDewpointWater temp
2017-Nov-20 00:30N 40°42' W 074°02'3 5.3
2017-Nov-20 00:01N 40°45' W 074°01'3 5.2
2017-Nov-19 23:30N 40°47' W 073°60'3 5.4
2017-Nov-19 23:00N 40°49' W 073°58'3 5.6
2017-Nov-19 22:30N 40°52' W 073°57'3 5.9
2017-Nov-19 22:00N 40°55' W 073°55'  
2017-Nov-16 11:44N 40°57' W 073°54'1 5.5
2017-Nov-16 11:30N 40°56' W 073°55'3 5.4
2017-Nov-16 11:00N 40°53' W 073°56'3 5.4
2017-Nov-16 10:30N 40°51' W 073°57'2 4.8
2017-Nov-16 10:00N 40°49' W 073°59'2 4.7
2017-Nov-16 09:30N 40°47' W 073°60'2 3.6
2017-Nov-16 09:00N 40°45' W 074°01'2 3.0
2017-Nov-16 08:30N 40°44' W 074°01'1 2.9
2017-Nov-16 08:00N 40°42' W 074°02'1 2.8
2017-Nov-16 07:30N 40°41' W 074°03'1 2.2
2017-Nov-16 07:00N 40°40' W 074°03'0 0.2
2017-Nov-16 06:30N 40°40' W 074°03'0 0.0
2017-Nov-16 06:00N 40°40' W 074°03'0 0.1
2017-Nov-16 05:30N 40°40' W 074°03'0 0.0
2017-Nov-16 05:00N 40°40' W 074°03'0 0.0
2017-Nov-16 04:30N 40°40' W 074°03'0 0.0
2017-Nov-16 04:00N 40°40' W 074°03'0 0.0
2017-Nov-16 03:30N 40°40' W 074°03'0 0.0
2017-Nov-16 03:00N 40°40' W 074°03'0 0.2
2017-Nov-16 02:30N 40°40' W 074°03'0 0.1
2017-Nov-16 02:00N 40°40' W 074°03'1 2.5
2017-Nov-16 01:30N 40°41' W 074°02'3 6.4
2017-Nov-16 01:00N 40°43' W 073°59'2 3.7
2017-Nov-16 00:30N 40°44' W 073°57'1 1.2
2017-Nov-16 00:00N 40°44' W 073°57'0 0.5
2017-Nov-15 23:30N 40°44' W 073°57'4 8.8
2017-Nov-15 23:00N 40°41' W 074°01'1 2.9
2017-Nov-15 22:30N 40°40' W 074°02'1 2.4
2017-Nov-15 22:00N 40°40' W 074°03'1 2.7
2017-Nov-15 21:30N 40°41' W 074°02'3 5.1
2017-Nov-15 21:00N 40°42' W 073°59'2 4.5
2017-Nov-15 20:30N 40°44' W 073°57'1 1.4
2017-Nov-15 20:00N 40°44' W 073°57'0 0.1
2017-Nov-15 19:29N 40°44' W 073°57'0 0.9
2017-Nov-15 19:00N 40°44' W 073°57'2 5.0
2017-Nov-15 18:30N 40°42' W 073°59'3 6.2
2017-Nov-15 18:00N 40°40' W 074°02'1 1.5
2017-Nov-15 17:30N 40°40' W 074°01'0 0.0
2017-Nov-15 17:00N 40°40' W 074°01'0 0.0
2017-Nov-15 16:30N 40°40' W 074°01'0 0.3
2017-Nov-15 16:00N 40°40' W 074°01'3 5.6
2017-Nov-15 15:30N 40°39' W 074°04'3 6.9
2017-Nov-15 15:00N 40°39' W 074°09'4 8.2
2017-Nov-15 14:30N 40°43' W 074°07'1 1.7
2017-Nov-15 14:00N 40°44' W 074°07'0 0.0
2017-Nov-15 13:30N 40°44' W 074°07'0 0.0
2017-Nov-15 13:00N 40°44' W 074°07'1 1.3
2017-Nov-15 12:30N 40°43' W 074°07'3 5.0
2017-Nov-15 12:00N 40°41' W 074°08'2 4.3
2017-Nov-15 11:30N 40°39' W 074°08'2 5.0
2017-Nov-15 11:00N 40°39' W 074°05'3 5.2
2017-Nov-15 10:30N 40°40' W 074°02'0 0.1
2017-Nov-15 10:00N 40°40' W 074°02'0 0.2
2017-Nov-15 09:30N 40°40' W 074°02'2 3.0
2017-Nov-15 09:00N 40°41' W 074°01'2 3.8
2017-Nov-15 08:30N 40°42' W 073°59'2 3.6
2017-Nov-15 08:00N 40°44' W 073°58'2 4.3
2017-Nov-15 07:29N 40°46' W 073°57'2 4.5
2017-Nov-15 07:00N 40°48' W 073°55'3 5.5
2017-Nov-15 06:30N 40°48' W 073°51'3 6.1
2017-Nov-15 06:00N 40°48' W 073°47'6 0.3
2017-Nov-14 08:27N 40°53' W 073°43'4 7.0
2017-Nov-14 07:52N 40°50' W 073°46'3 6.4
2017-Nov-14 07:27N 40°48' W 073°49'4 8.7
2017-Nov-14 07:00N 40°48' W 073°54'5 9.5
2017-Nov-14 06:30N 40°44' W 073°58'4 7.8
2017-Nov-14 06:01N 40°41' W 074°01'2 4.3
2017-Nov-14 05:30N 40°40' W 074°03'3 5.1
2017-Nov-14 05:00N 40°39' W 074°06'0 0.5
2017-Nov-14 04:30N 40°39' W 074°07'0 0.0
2017-Nov-14 04:00N 40°39' W 074°07'0 0.0
2017-Nov-14 03:30N 40°39' W 074°07'1 2.8
2017-Nov-14 03:00N 40°39' W 074°05'3 6.1
2017-Nov-14 02:30N 40°40' W 074°01'1 1.1
2017-Nov-14 02:00N 40°40' W 074°02'0 0.7
2017-Nov-14 01:30N 40°40' W 074°02'1 1.7
2017-Nov-14 01:00N 40°40' W 074°01'0 0.8
2017-Nov-14 00:30N 40°40' W 074°01'1 1.4
2017-Nov-14 00:00N 40°40' W 074°00'0 0.8
2017-Nov-13 23:30N 40°40' W 074°01'2 3.9
2017-Nov-13 23:00N 40°40' W 074°03'0 0.0
2017-Nov-13 22:30N 40°40' W 074°03'0 0.2
2017-Nov-13 22:00N 40°40' W 074°03'8 0.4
2017-Nov-13 02:00N 40°47' W 073°59'5 9.3
2017-Nov-13 01:30N 40°51' W 073°57'6 0.1
2017-Nov-11 05:37N 40°57' W 073°54'1 6.8
2017-Nov-11 05:29N 40°56' W 073°54'3 6.5
2017-Nov-11 05:00N 40°53' W 073°56'3 6.2
2017-Nov-11 04:31N 40°50' W 073°57'3 5.7
2017-Nov-11 04:00N 40°48' W 073°59'3 5.0
2017-Nov-11 03:30N 40°46' W 074°01'2 4.4
2017-Nov-11 03:00N 40°44' W 074°01'2 3.8
2017-Nov-11 02:30N 40°42' W 074°02'2 3.7
2017-Nov-11 02:01N 40°40' W 074°03'1 1.2
2017-Nov-11 01:30N 40°40' W 074°03'0 0.5
2017-Nov-11 01:01N 40°40' W 074°02'1 1.8
2017-Nov-11 00:30N 40°41' W 074°02'4 8.2
2017-Nov-11 00:00N 40°44' W 073°58'1 2.4
2017-Nov-10 23:30N 40°44' W 073°57'0 0.1
2017-Nov-10 23:01N 40°44' W 073°57'1 2.8
2017-Nov-10 22:30N 40°43' W 073°58'5 9.5
2017-Nov-10 22:00N 40°47' W 073°55'4 7.8
2017-Nov-10 21:30N 40°48' W 073°50'2 3.9
2017-Nov-10 20:54N 40°50' W 073°48'0 0.4
2017-Nov-10 20:27N 40°50' W 073°48'1 2.1
2017-Nov-10 20:00N 40°50' W 073°48'1 2.9
2017-Nov-10 19:30N 40°48' W 073°47'5 7.6
2017-Nov-10 18:54N 40°48' W 073°53'4 9.1
2017-Nov-10 18:30N 40°46' W 073°57'4 8.8
2017-Nov-10 18:00N 40°42' W 073°60'2 4.1
2017-Nov-10 17:31N 40°40' W 074°01'0 0.0
2017-Nov-10 17:01N 40°40' W 074°01'0 0.0
2017-Nov-10 16:31N 40°40' W 074°01'0 0.0
2017-Nov-10 16:01N 40°40' W 074°01'0 0.0
2017-Nov-10 15:31N 40°40' W 074°01'0 0.0
2017-Nov-10 15:00N 40°40' W 074°01'0 0.0
2017-Nov-10 14:31N 40°40' W 074°01'0 0.0
2017-Nov-10 14:01N 40°40' W 074°01'0 0.0
2017-Nov-10 13:31N 40°40' W 074°01'0 0.0
2017-Nov-10 13:01N 40°40' W 074°01'0 0.0
2017-Nov-10 12:31N 40°40' W 074°01'0 0.0
2017-Nov-10 12:01N 40°40' W 074°01'0 0.0
2017-Nov-10 11:31N 40°40' W 074°01'0 0.0
2017-Nov-10 11:01N 40°40' W 074°01'0 0.0
2017-Nov-10 10:31N 40°40' W 074°01'0 0.0
2017-Nov-10 10:01N 40°40' W 074°01'0 0.0
2017-Nov-10 09:30N 40°40' W 074°01'0 0.0
2017-Nov-10 09:01N 40°40' W 074°01'0 0.0
2017-Nov-10 08:31N 40°40' W 074°01'0 0.0
2017-Nov-10 08:01N 40°40' W 074°01'0 0.0
2017-Nov-10 07:30N 40°40' W 074°01'0 0.0
2017-Nov-10 07:01N 40°40' W 074°01'0 0.0
2017-Nov-10 06:31N 40°40' W 074°01'0 0.0
2017-Nov-10 06:01N 40°40' W 074°01'2 3.5
2017-Nov-10 05:31N 40°42' W 074°00'2 4.9
2017-Nov-10 05:01N 40°44' W 073°58'1 2.5
2017-Nov-10 04:30N 40°44' W 073°57'0 0.0
2017-Nov-10 04:00N 40°44' W 073°57'0 0.0
2017-Nov-10 03:30N 40°44' W 073°57'0 0.0
2017-Nov-10 03:00N 40°44' W 073°57'0 0.0
2017-Nov-10 02:30N 40°44' W 073°57'0 0.9
2017-Nov-10 02:00N 40°44' W 073°57'4 7.9
2017-Nov-10 01:31N 40°41' W 074°01'2 3.7
2017-Nov-10 01:00N 40°40' W 074°02'0 0.1
2017-Nov-10 00:31N 40°40' W 074°02'  

Dump ship's entire track history